createdAt,value
2022-11-14T00:06:34.852Z,86.27
2022-11-14T00:14:08.750Z,76.45
2022-11-14T00:21:44.005Z,79.27
2022-11-14T00:29:18.188Z,76.68
2022-11-14T00:36:53.316Z,66.70
2022-11-14T00:44:27.198Z,74.07
2022-11-14T00:52:02.419Z,72.50
2022-11-14T00:59:36.271Z,72.93
2022-11-14T01:07:11.438Z,79.88
2022-11-14T01:14:45.258Z,78.72
2022-11-14T01:22:20.464Z,82.47
2022-11-14T01:29:54.351Z,73.18
2022-11-14T01:37:29.620Z,88.37
2022-11-14T01:45:23.649Z,83.45
2022-11-14T01:52:58.869Z,74.82
2022-11-14T02:00:32.859Z,86.28
2022-11-14T02:08:12.607Z,91.23
2022-11-14T02:15:46.481Z,94.43
2022-11-14T02:23:28.179Z,86.07
2022-11-14T02:31:03.241Z,89.90
2022-11-14T02:38:38.452Z,93.00
2022-11-14T02:46:12.394Z,96.65
2022-11-14T02:53:47.559Z,83.57
2022-11-14T03:01:21.904Z,100.75
2022-11-14T03:08:57.288Z,92.80
2022-11-14T03:16:31.109Z,94.40
2022-11-14T03:24:07.133Z,101.00
2022-11-14T03:31:41.316Z,92.32
2022-11-14T03:39:16.897Z,96.03
2022-11-14T03:46:50.765Z,99.68
2022-11-14T03:54:26.016Z,94.03
2022-11-14T04:01:59.829Z,86.50
2022-11-14T04:09:35.237Z,75.85
2022-11-14T04:17:08.956Z,82.57
2022-11-14T04:24:44.112Z,86.57
2022-11-14T04:32:18.213Z,85.80
2022-11-14T04:39:53.438Z,89.67
2022-11-14T04:47:27.252Z,84.97
2022-11-14T04:55:02.625Z,98.50
2022-11-14T05:02:36.494Z,90.97
2022-11-14T05:10:11.929Z,96.47
2022-11-14T05:17:45.777Z,93.82
2022-11-14T05:25:21.599Z,96.13
2022-11-14T05:32:56.270Z,99.13
2022-11-14T05:40:31.505Z,94.90
2022-11-14T05:48:05.763Z,94.03
2022-11-14T05:55:40.963Z,100.45
2022-11-14T06:03:15.511Z,106.30
2022-11-14T06:10:50.842Z,102.55
2022-11-14T06:18:24.673Z,103.50
2022-11-14T06:26:03.860Z,102.13
2022-11-14T06:33:38.497Z,95.20
2022-11-14T06:41:17.209Z,98.18
2022-11-14T06:48:52.458Z,101.32
2022-11-14T06:56:27.922Z,96.80
2022-11-14T07:04:02.392Z,84.15
2022-11-14T07:11:37.901Z,90.10
2022-11-14T07:19:12.555Z,95.72
2022-11-14T07:34:21.859Z,102.88
2022-11-14T07:41:57.059Z,95.80
2022-11-14T07:49:30.825Z,92.22
2022-11-14T07:57:06.315Z,99.60
2022-11-14T08:04:40.111Z,89.55
2022-11-14T08:12:15.303Z,86.17
2022-11-14T08:19:49.268Z,86.53
2022-11-14T08:27:24.699Z,83.87
2022-11-14T08:34:58.515Z,75.10
2022-11-14T08:42:33.825Z,84.30
2022-11-14T08:50:07.917Z,73.63
2022-11-14T08:57:48.085Z,73.70
2022-11-14T09:05:23.156Z,76.28
2022-11-14T09:12:59.165Z,81.35
2022-11-14T09:20:36.252Z,71.07
2022-11-14T09:28:15.226Z,71.05
2022-11-14T09:35:49.311Z,63.78
2022-11-14T09:43:40.715Z,67.10
2022-11-14T09:51:18.049Z,63.58
2022-11-14T09:58:53.507Z,60.45
2022-11-14T10:06:31.036Z,59.28
2022-11-14T10:14:29.612Z,55.80
2022-11-14T10:22:18.069Z,64.82
2022-11-14T10:30:04.555Z,50.78
2022-11-14T10:37:43.032Z,57.10
2022-11-14T10:45:26.836Z,57.92
2022-11-14T10:53:05.236Z,55.92
2022-11-14T11:00:40.704Z,52.65
2022-11-14T11:08:47.798Z,55.75
2022-11-14T11:16:25.784Z,53.22
2022-11-14T11:23:59.641Z,51.75
2022-11-14T11:31:53.620Z,52.13
2022-11-14T11:39:31.877Z,56.08
2022-11-14T11:47:13.371Z,48.63
2022-11-14T11:55:03.641Z,49.13
2022-11-14T12:02:49.504Z,45.65
2022-11-14T12:10:27.686Z,49.30
2022-11-14T12:18:19.872Z,44.13
2022-11-14T12:26:20.910Z,38.95
2022-11-14T12:34:01.770Z,42.13
2022-11-14T12:41:39.355Z,43.47
2022-11-14T12:49:39.364Z,46.85
2022-11-14T12:57:43.754Z,37.08
2022-11-14T13:05:26.467Z,39.25
2022-11-14T13:13:25.129Z,42.20
2022-11-14T16:19:29.008Z,31.80
2022-11-14T16:27:03.060Z,32.65
2022-11-14T16:34:38.265Z,30.27
2022-11-14T16:42:12.832Z,29.80
2022-11-14T16:49:48.320Z,35.45
2022-11-14T16:57:22.121Z,30.25
2022-11-14T17:04:57.537Z,30.70
2022-11-14T17:12:32.184Z,31.77
2022-11-14T17:20:10.396Z,30.90
2022-11-14T17:27:44.212Z,32.22
2022-11-14T17:35:19.832Z,35.53
2022-11-14T17:42:54.268Z,41.05
2022-11-14T17:50:33.159Z,30.80
2022-11-14T17:58:11.310Z,32.35
2022-11-14T18:05:46.605Z,31.53
2022-11-14T18:13:20.370Z,32.92
2022-11-14T18:20:55.844Z,31.58
2022-11-14T18:28:29.918Z,30.73
2022-11-14T18:36:08.845Z,32.37
2022-11-14T18:43:44.423Z,31.45
2022-11-14T18:51:21.453Z,31.70
2022-11-14T18:58:56.491Z,33.38
2022-11-14T19:06:34.774Z,33.92
2022-11-14T19:14:08.580Z,29.60
2022-11-14T19:21:44.687Z,36.25
2022-11-14T19:29:18.560Z,32.53
2022-11-14T19:37:01.996Z,35.47
2022-11-14T19:44:35.830Z,35.58
2022-11-14T19:52:11.756Z,32.13
2022-11-14T19:59:45.875Z,36.45
2022-11-14T20:07:21.384Z,34.47
2022-11-14T20:14:55.337Z,36.85
2022-11-14T20:22:30.961Z,37.63
2022-11-14T20:30:05.838Z,36.10
2022-11-14T20:37:41.175Z,33.58
2022-11-14T20:45:15.153Z,35.53
2022-11-14T20:52:50.475Z,38.47
2022-11-14T21:00:24.452Z,35.78
2022-11-14T21:07:59.610Z,37.83
2022-11-14T21:15:35.551Z,31.17
2022-11-14T21:23:10.749Z,30.27
2022-11-14T21:30:44.673Z,33.95
2022-11-14T21:38:21.186Z,36.57
2022-11-14T21:45:59.748Z,35.42
2022-11-14T21:53:35.976Z,34.08
2022-11-14T22:01:11.594Z,38.33
2022-11-14T22:08:46.868Z,31.80
2022-11-14T22:16:21.030Z,32.95
2022-11-14T22:23:56.851Z,31.90
2022-11-14T22:31:30.825Z,37.60
2022-11-14T22:39:06.948Z,35.87
2022-11-14T22:46:40.759Z,41.63
2022-11-14T22:54:15.930Z,38.73
2022-11-14T23:01:49.827Z,37.15
2022-11-14T23:09:24.878Z,34.80
2022-11-14T23:16:58.681Z,32.70
2022-11-14T23:24:33.844Z,35.43
2022-11-14T23:32:07.672Z,35.75
2022-11-14T23:39:43.643Z,36.60
2022-11-14T23:47:17.537Z,35.90
2022-11-14T23:54:52.755Z,36.10
